Hlavní strana
METAR-TAF:

METAR-TAF

Letiště :

Džidda, Saúdská Arábie

Mezinárodní letiště Krále Abda al-Azíze

zeměpisná šířka: 21-42N, zeměpisná délka: 039-11E, výška: 15 m

Aktuální stav počasí

Zpráva byla vytvořena před 48 minutami, v 14:00 UTC
Západoseverozápadní vítr 12 kt
Teplota 31°C
Vlhkost vzduchu 38%
Tlak 1006 hPa
Viditelnost 10 km a více
Žádná oblačnost pod 1500 m, nevyskytují se cumulonimby.

METAR: OEJN 241400Z 30012KT CAVOK 31/15 Q1006 NOSIG

Čas: 17:48 (14:48 UTC)

Předpověď počasí

Zpráva byla vytvořena před 3 hodinami a 48 minutami, v 11:00 UTC
Předpověď platná od 24 v 12 UTC do 25 v 18 UTC
Severoseverozápadní vítr 10 kt s nárazy do 20 kt
Viditelnost: 7000 m
Skoro jasno ve výšce 4000 ft
Změna
od 24 v 20 UTC do 24 v 22 UTC
Severoseverovýchodní vítr 8 kt

TAF: OEJN 241100Z 2412/2518 33010G20KT 7000 FEW040 BECMG 2420/2422 02008KT

Stav a předpovědi počasí z více než 4 000 letišť (zprávy METAR a TAF).

Červené a žluté tečky na mapě představují dostupné meteorologické stanice.

Když kurzor umístíte na tečku, zobrazí se název stanice.

Pak kliknutím zobrazíte stav a předpověď počasí.

Chcete-li změnit mapu, kliknutím na zelené tlačítko se znaménkem +mapu přiblížíte, kliknutím na zelené tlačítko se znaménkem – mapu oddálíte a kliknutím na zelené šipky přejdete na sousední mapy.


METAR-TAF: